TIB1051 SBRJ-SBCX
Flight info
| Callsign | TIB1051 |
|---|---|
| Flight time | 1h 43m |
| Altitude | 34000 |
| Route | BITAK UN857 UGREV DCT VUKMO |
| Aircraft | E75L/M-SDE3GILORVW/S |
Departure
| Time | 2026-05-04 00:16 |
|---|---|
| Airport | Santos Dumont Airport (SBRJ) |
Arrival
| Time | 2026-05-04 01:59 |
|---|---|
| Airport | Hugo Cantergiani Regional Airport (SBCX) |
| Time | Latitude | Longitude | Altitude | Speed | Heading |
|---|---|---|---|---|---|
| 2026-05-03 23:39 | -22.90955 | -43.16611 | 27 ft | 0 kts | 266° |
| 2026-05-03 23:40 | -22.90918 | -43.16614 | 28 ft | 0 kts | 266° |
| 2026-05-04 00:01 | -22.90917 | -43.16602 | 27 ft | 2 kts | 266° |
| 2026-05-04 00:01 | -22.90916 | -43.16591 | 27 ft | 2 kts | 259° |
| 2026-05-04 00:02 | -22.90911 | -43.16576 | 26 ft | 2 kts | 236° |
| 2026-05-04 00:02 | -22.90901 | -43.16565 | 26 ft | 2 kts | 215° |
| 2026-05-04 00:02 | -22.90887 | -43.16558 | 26 ft | 2 kts | 193° |
| 2026-05-04 00:02 | -22.90875 | -43.16556 | 26 ft | 1 kts | 177° |
| 2026-05-04 00:03 | -22.90874 | -43.16556 | 26 ft | 0 kts | 177° |
| 2026-05-04 00:05 | -22.90875 | -43.16556 | 26 ft | 0 kts | 178° |
| 2026-05-04 00:06 | -22.90888 | -43.16555 | 26 ft | 3 kts | 169° |
| 2026-05-04 00:06 | -22.90915 | -43.16548 | 26 ft | 4 kts | 169° |
| 2026-05-04 00:06 | -22.90952 | -43.16544 | 25 ft | 5 kts | 175° |
| 2026-05-04 00:06 | -22.90998 | -43.16541 | 25 ft | 6 kts | 178° |
| 2026-05-04 00:07 | -22.91050 | -43.16539 | 25 ft | 7 kts | 178° |
| 2026-05-04 00:07 | -22.91108 | -43.16526 | 24 ft | 9 kts | 167° |
| 2026-05-04 00:07 | -22.91178 | -43.16516 | 24 ft | 10 kts | 177° |
| 2026-05-04 00:07 | -22.91254 | -43.16511 | 23 ft | 11 kts | 175° |
| 2026-05-04 00:08 | -22.91335 | -43.16505 | 23 ft | 11 kts | 176° |
| 2026-05-04 00:08 | -22.91366 | -43.16503 | 23 ft | 0 kts | 176° |
| 2026-05-04 00:08 | -22.91371 | -43.16503 | 23 ft | 2 kts | 176° |
| 2026-05-04 00:08 | -22.91395 | -43.16499 | 23 ft | 4 kts | 163° |
| 2026-05-04 00:09 | -22.91422 | -43.16481 | 23 ft | 0 kts | 140° |
| 2026-05-04 00:09 | -22.91423 | -43.16480 | 23 ft | 0 kts | 140° |
| 2026-05-04 00:10 | -22.91425 | -43.16479 | 23 ft | 1 kts | 140° |
| 2026-05-04 00:10 | -22.91436 | -43.16468 | 23 ft | 2 kts | 138° |
| 2026-05-04 00:10 | -22.91441 | -43.16463 | 22 ft | 1 kts | 136° |
| 2026-05-04 00:10 | -22.91455 | -43.16449 | 22 ft | 3 kts | 135° |
| 2026-05-04 00:11 | -22.91471 | -43.16432 | 22 ft | 0 kts | 137° |
| 2026-05-04 00:13 | -22.91482 | -43.16420 | 22 ft | 7 kts | 137° |
| 2026-05-04 00:13 | -22.91538 | -43.16364 | 21 ft | 13 kts | 138° |
| 2026-05-04 00:14 | -22.91613 | -43.16291 | 20 ft | 14 kts | 137° |
| 2026-05-04 00:14 | -22.91634 | -43.16241 | 19 ft | 5 kts | 359° |
| 2026-05-04 00:14 | -22.91628 | -43.16241 | 19 ft | 0 kts | 352° |
| 2026-05-04 00:15 | -22.91626 | -43.16242 | 19 ft | 0 kts | 352° |
| 2026-05-04 00:15 | -22.91418 | -43.16262 | 20 ft | 68 kts | 357° |
| 2026-05-04 00:16 | -22.90711 | -43.16306 | 22 ft | 131 kts | 356° |
| 2026-05-04 00:16 | -22.89808 | -43.16366 | 562 ft | 128 kts | 0° |
| 2026-05-04 00:16 | -22.88954 | -43.15930 | 830 ft | 151 kts | 48° |
| 2026-05-04 00:16 | -22.88269 | -43.15075 | 1367 ft | 154 kts | 55° |
| 2026-05-04 00:17 | -22.87567 | -43.14085 | 1590 ft | 175 kts | 54° |
| 2026-05-04 00:17 | -22.87092 | -43.12782 | 1597 ft | 205 kts | 94° |
| 2026-05-04 00:17 | -22.87331 | -43.11227 | 2099 ft | 214 kts | 102° |
| 2026-05-04 00:17 | -22.87621 | -43.09625 | 2695 ft | 220 kts | 102° |
| 2026-05-04 00:18 | -22.87915 | -43.07978 | 3328 ft | 227 kts | 102° |
| 2026-05-04 00:18 | -22.88235 | -43.06229 | 3610 ft | 248 kts | 107° |
| 2026-05-04 00:18 | -22.89192 | -43.04657 | 3989 ft | 262 kts | 143° |
| 2026-05-04 00:18 | -22.90918 | -43.03947 | 4584 ft | 269 kts | 171° |
| 2026-05-04 00:19 | -22.92766 | -43.03693 | 5286 ft | 271 kts | 181° |
| 2026-05-04 00:19 | -22.94559 | -43.04301 | 5987 ft | 273 kts | 214° |
| 2026-05-04 00:19 | -22.96058 | -43.05578 | 6714 ft | 275 kts | 219° |
| 2026-05-04 00:19 | -22.97548 | -43.06900 | 7400 ft | 278 kts | 220° |
| 2026-05-04 00:20 | -22.99051 | -43.08239 | 8019 ft | 278 kts | 220° |
| 2026-05-04 00:20 | -23.00558 | -43.09586 | 8423 ft | 288 kts | 220° |
| 2026-05-04 00:20 | -23.02131 | -43.10989 | 9031 ft | 293 kts | 221° |
| 2026-05-04 00:20 | -23.03707 | -43.12398 | 9695 ft | 296 kts | 221° |
| 2026-05-04 00:21 | -23.05292 | -43.13815 | 10292 ft | 301 kts | 221° |
| 2026-05-04 00:21 | -23.06985 | -43.15320 | 10462 ft | 322 kts | 220° |
| 2026-05-04 00:21 | -23.08731 | -43.16839 | 11302 ft | 317 kts | 220° |
| 2026-05-04 00:21 | -23.10461 | -43.18346 | 12069 ft | 316 kts | 220° |
| 2026-05-04 00:22 | -23.12182 | -43.19845 | 12631 ft | 321 kts | 220° |
| 2026-05-04 00:22 | -23.13950 | -43.21386 | 13143 ft | 328 kts | 220° |
| 2026-05-04 00:22 | -23.15740 | -43.22945 | 13696 ft | 333 kts | 220° |
| 2026-05-04 00:22 | -23.17545 | -43.24517 | 14346 ft | 335 kts | 220° |
| 2026-05-04 00:23 | -23.19370 | -43.26108 | 15047 ft | 334 kts | 221° |
| 2026-05-04 00:23 | -23.21182 | -43.27688 | 15719 ft | 334 kts | 222° |
| 2026-05-04 00:23 | -23.22976 | -43.29254 | 16361 ft | 333 kts | 222° |
| 2026-05-04 00:23 | -23.24786 | -43.30835 | 16931 ft | 334 kts | 223° |
| 2026-05-04 00:24 | -23.26618 | -43.32435 | 17502 ft | 335 kts | 223° |
| 2026-05-04 00:24 | -23.28418 | -43.34007 | 18034 ft | 336 kts | 223° |
| 2026-05-04 00:24 | -23.30263 | -43.35619 | 18570 ft | 337 kts | 223° |
| 2026-05-04 00:24 | -23.32075 | -43.37204 | 19072 ft | 339 kts | 223° |
| 2026-05-04 00:25 | -23.33937 | -43.38824 | 19579 ft | 340 kts | 222° |
| 2026-05-04 00:25 | -23.35793 | -43.40414 | 20105 ft | 341 kts | 222° |
| 2026-05-04 00:25 | -23.37657 | -43.42011 | 20630 ft | 340 kts | 222° |
| 2026-05-04 00:25 | -23.39512 | -43.43600 | 21141 ft | 340 kts | 222° |
| 2026-05-04 00:26 | -23.41384 | -43.45205 | 21652 ft | 340 kts | 222° |
| 2026-05-04 00:26 | -23.43263 | -43.46817 | 22135 ft | 340 kts | 222° |
| 2026-05-04 00:26 | -23.45105 | -43.48397 | 22562 ft | 341 kts | 222° |
| 2026-05-04 00:26 | -23.46988 | -43.50012 | 23008 ft | 342 kts | 222° |
| 2026-05-04 00:27 | -23.48864 | -43.51622 | 23402 ft | 343 kts | 223° |
| 2026-05-04 00:27 | -23.50746 | -43.53238 | 23759 ft | 345 kts | 223° |
| 2026-05-04 00:27 | -23.52636 | -43.54863 | 24052 ft | 349 kts | 223° |
| 2026-05-04 00:27 | -23.54542 | -43.56500 | 24397 ft | 351 kts | 223° |
| 2026-05-04 00:28 | -23.56471 | -43.58159 | 24744 ft | 353 kts | 224° |
| 2026-05-04 00:28 | -23.58415 | -43.59831 | 25062 ft | 355 kts | 224° |
| 2026-05-04 00:28 | -23.60340 | -43.61488 | 25375 ft | 357 kts | 224° |
| 2026-05-04 00:28 | -23.62307 | -43.63180 | 25689 ft | 359 kts | 224° |
| 2026-05-04 00:29 | -23.64146 | -43.64998 | 25974 ft | 357 kts | 230° |
| 2026-05-04 00:29 | -23.65939 | -43.66922 | 26337 ft | 358 kts | 231° |
| 2026-05-04 00:29 | -23.67715 | -43.68827 | 26639 ft | 360 kts | 231° |
| 2026-05-04 00:29 | -23.69523 | -43.70767 | 26953 ft | 361 kts | 231° |
| 2026-05-04 00:30 | -23.71319 | -43.72694 | 27239 ft | 363 kts | 231° |
| 2026-05-04 00:30 | -23.73130 | -43.74638 | 27523 ft | 365 kts | 231° |
| 2026-05-04 00:30 | -23.74942 | -43.76585 | 27825 ft | 366 kts | 232° |
| 2026-05-04 00:30 | -23.76762 | -43.78540 | 28105 ft | 368 kts | 232° |
| 2026-05-04 00:31 | -23.78582 | -43.80497 | 28375 ft | 369 kts | 232° |
| 2026-05-04 00:31 | -23.80420 | -43.82474 | 28627 ft | 371 kts | 232° |
| 2026-05-04 00:31 | -23.82263 | -43.84456 | 28885 ft | 372 kts | 232° |
| 2026-05-04 00:31 | -23.84127 | -43.86463 | 29133 ft | 374 kts | 233° |
| 2026-05-04 00:32 | -23.85962 | -43.88439 | 29411 ft | 375 kts | 233° |
| 2026-05-04 00:32 | -23.87834 | -43.90457 | 29632 ft | 377 kts | 233° |
| 2026-05-04 00:32 | -23.89709 | -43.92477 | 29872 ft | 379 kts | 233° |
| 2026-05-04 00:32 | -23.91589 | -43.94503 | 30133 ft | 380 kts | 233° |
| 2026-05-04 00:33 | -23.93484 | -43.96549 | 30360 ft | 381 kts | 233° |
| 2026-05-04 00:33 | -23.97251 | -44.00614 | 30810 ft | 384 kts | 232° |
| 2026-05-04 00:33 | -23.99165 | -44.02681 | 31040 ft | 385 kts | 232° |
| 2026-05-04 00:34 | -24.01060 | -44.04728 | 31216 ft | 387 kts | 233° |
| 2026-05-04 00:34 | -24.02998 | -44.06824 | 31418 ft | 388 kts | 232° |
| 2026-05-04 00:34 | -24.04929 | -44.08913 | 31579 ft | 391 kts | 232° |
| 2026-05-04 00:34 | -24.06848 | -44.10988 | 31836 ft | 390 kts | 232° |
| 2026-05-04 00:35 | -24.08766 | -44.13064 | 32144 ft | 389 kts | 232° |
| 2026-05-04 00:35 | -24.10683 | -44.15140 | 32477 ft | 386 kts | 232° |
| 2026-05-04 00:35 | -24.12583 | -44.17199 | 32765 ft | 385 kts | 232° |
| 2026-05-04 00:35 | -24.14493 | -44.19269 | 33090 ft | 382 kts | 232° |
| 2026-05-04 00:36 | -24.16387 | -44.21323 | 33368 ft | 381 kts | 232° |
| 2026-05-04 00:36 | -24.18273 | -44.23369 | 33590 ft | 382 kts | 233° |
| 2026-05-04 00:36 | -24.20156 | -44.25413 | 33884 ft | 381 kts | 233° |
| 2026-05-04 00:36 | -24.22020 | -44.27438 | 34133 ft | 380 kts | 233° |
| 2026-05-04 00:37 | -24.23905 | -44.29486 | 34189 ft | 379 kts | 233° |
| 2026-05-04 00:37 | -24.27673 | -44.33584 | 34209 ft | 387 kts | 233° |
| 2026-05-04 00:38 | -24.31547 | -44.37799 | 34207 ft | 395 kts | 232° |
| 2026-05-04 00:38 | -24.35485 | -44.42086 | 34203 ft | 403 kts | 232° |
| 2026-05-04 00:39 | -24.39494 | -44.46457 | 34207 ft | 406 kts | 232° |
| 2026-05-04 00:39 | -24.43483 | -44.50808 | 34213 ft | 403 kts | 232° |
| 2026-05-04 00:40 | -24.47477 | -44.55170 | 34203 ft | 405 kts | 232° |
| 2026-05-04 00:40 | -24.51439 | -44.59545 | 34204 ft | 403 kts | 233° |
| 2026-05-04 00:41 | -24.55384 | -44.63951 | 34201 ft | 406 kts | 233° |
| 2026-05-04 00:41 | -24.59319 | -44.68349 | 34221 ft | 404 kts | 233° |
| 2026-05-04 00:42 | -24.63239 | -44.72733 | 34219 ft | 401 kts | 233° |
| 2026-05-04 00:42 | -24.67158 | -44.77120 | 34214 ft | 400 kts | 233° |
| 2026-05-04 00:43 | -24.71050 | -44.81483 | 34219 ft | 402 kts | 233° |
| 2026-05-04 00:43 | -24.74956 | -44.85865 | 34218 ft | 401 kts | 233° |
| 2026-05-04 00:44 | -24.78881 | -44.90272 | 34216 ft | 400 kts | 233° |
| 2026-05-04 00:44 | -24.82784 | -44.94658 | 34216 ft | 401 kts | 233° |
| 2026-05-04 00:45 | -24.86666 | -44.99026 | 34215 ft | 400 kts | 233° |
| 2026-05-04 00:45 | -24.90554 | -45.03404 | 34213 ft | 398 kts | 233° |
| 2026-05-04 00:46 | -24.94452 | -45.07798 | 34215 ft | 401 kts | 233° |
| 2026-05-04 00:46 | -24.98329 | -45.12172 | 34212 ft | 398 kts | 233° |
| 2026-05-04 00:47 | -25.02213 | -45.16559 | 34213 ft | 399 kts | 233° |
| 2026-05-04 00:47 | -25.06103 | -45.20956 | 34212 ft | 400 kts | 233° |
| 2026-05-04 00:48 | -25.09960 | -45.25320 | 34208 ft | 399 kts | 233° |
| 2026-05-04 00:48 | -25.13843 | -45.29718 | 34211 ft | 398 kts | 233° |
| 2026-05-04 00:49 | -25.17694 | -45.34084 | 34209 ft | 398 kts | 233° |
| 2026-05-04 00:49 | -25.21551 | -45.38462 | 34206 ft | 399 kts | 233° |
| 2026-05-04 00:50 | -25.25412 | -45.42847 | 34212 ft | 398 kts | 233° |
| 2026-05-04 00:50 | -25.29260 | -45.47223 | 34209 ft | 397 kts | 233° |
| 2026-05-04 00:51 | -25.33112 | -45.51606 | 34198 ft | 398 kts | 233° |
| 2026-05-04 00:51 | -25.36990 | -45.56025 | 34202 ft | 397 kts | 232° |
| 2026-05-04 00:52 | -25.40811 | -45.60381 | 34197 ft | 397 kts | 233° |
| 2026-05-04 00:52 | -25.44657 | -45.64772 | 34200 ft | 397 kts | 232° |
| 2026-05-04 00:53 | -25.48501 | -45.69163 | 34209 ft | 397 kts | 233° |
| 2026-05-04 00:53 | -25.52329 | -45.73542 | 34220 ft | 397 kts | 233° |
| 2026-05-04 00:54 | -25.56157 | -45.77924 | 34216 ft | 397 kts | 233° |
| 2026-05-04 00:54 | -25.59977 | -45.82301 | 34210 ft | 396 kts | 233° |
| 2026-05-04 00:55 | -25.63803 | -45.86691 | 34199 ft | 395 kts | 232° |
| 2026-05-04 00:55 | -25.67614 | -45.91066 | 34198 ft | 395 kts | 233° |
| 2026-05-04 00:56 | -25.71437 | -45.95462 | 34199 ft | 397 kts | 233° |
| 2026-05-04 00:56 | -25.75283 | -45.99889 | 34176 ft | 396 kts | 232° |
| 2026-05-04 00:57 | -25.79089 | -46.04273 | 34201 ft | 396 kts | 232° |
| 2026-05-04 00:57 | -25.82922 | -46.08693 | 34196 ft | 395 kts | 232° |
| 2026-05-04 00:58 | -25.86732 | -46.13090 | 34197 ft | 394 kts | 233° |
| 2026-05-04 00:58 | -25.90536 | -46.17487 | 34198 ft | 395 kts | 232° |
| 2026-05-04 00:59 | -25.94332 | -46.21876 | 34197 ft | 395 kts | 232° |
| 2026-05-04 00:59 | -25.98151 | -46.26299 | 34195 ft | 394 kts | 232° |
| 2026-05-04 01:00 | -26.01949 | -46.30700 | 34189 ft | 396 kts | 233° |
| 2026-05-04 01:00 | -26.05738 | -46.35096 | 34189 ft | 394 kts | 232° |
| 2026-05-04 01:01 | -26.09548 | -46.39520 | 34201 ft | 396 kts | 232° |
| 2026-05-04 01:01 | -26.13359 | -46.43950 | 34186 ft | 397 kts | 232° |
| 2026-05-04 01:02 | -26.17167 | -46.48381 | 34187 ft | 397 kts | 232° |
| 2026-05-04 01:02 | -26.20993 | -46.52838 | 34185 ft | 397 kts | 232° |
| 2026-05-04 01:03 | -26.24809 | -46.57287 | 34186 ft | 397 kts | 232° |
| 2026-05-04 01:03 | -26.28635 | -46.61752 | 34182 ft | 398 kts | 232° |
| 2026-05-04 01:04 | -26.32437 | -46.66195 | 34199 ft | 396 kts | 232° |
| 2026-05-04 01:04 | -26.36274 | -46.70681 | 34196 ft | 399 kts | 232° |
| 2026-05-04 01:05 | -26.40104 | -46.75164 | 34199 ft | 398 kts | 232° |
| 2026-05-04 01:05 | -26.43953 | -46.79676 | 34196 ft | 400 kts | 232° |
| 2026-05-04 01:06 | -26.47792 | -46.84179 | 34197 ft | 400 kts | 232° |
| 2026-05-04 01:06 | -26.51597 | -46.88649 | 34199 ft | 399 kts | 232° |
| 2026-05-04 01:07 | -26.55443 | -46.93170 | 34197 ft | 402 kts | 232° |
| 2026-05-04 01:07 | -26.59317 | -46.97728 | 34194 ft | 402 kts | 232° |
| 2026-05-04 01:08 | -26.63134 | -47.02243 | 34194 ft | 403 kts | 232° |
| 2026-05-04 01:08 | -26.66959 | -47.06778 | 34193 ft | 402 kts | 232° |
| 2026-05-04 01:09 | -26.70814 | -47.11353 | 34192 ft | 402 kts | 232° |
| 2026-05-04 01:09 | -26.74638 | -47.15904 | 34190 ft | 402 kts | 232° |
| 2026-05-04 01:10 | -26.78488 | -47.20494 | 34182 ft | 404 kts | 232° |
| 2026-05-04 01:10 | -26.82332 | -47.25083 | 34181 ft | 404 kts | 232° |
| 2026-05-04 01:11 | -26.86178 | -47.29679 | 34189 ft | 405 kts | 232° |
| 2026-05-04 01:11 | -26.90038 | -47.34298 | 34190 ft | 405 kts | 232° |
| 2026-05-04 01:12 | -26.93913 | -47.38940 | 34189 ft | 405 kts | 232° |
| 2026-05-04 01:12 | -26.97751 | -47.43544 | 34192 ft | 407 kts | 232° |
| 2026-05-04 01:13 | -27.01622 | -47.48192 | 34189 ft | 405 kts | 232° |
| 2026-05-04 01:13 | -27.05475 | -47.52824 | 34188 ft | 406 kts | 232° |
| 2026-05-04 01:14 | -27.09325 | -47.57457 | 34182 ft | 405 kts | 232° |
| 2026-05-04 01:14 | -27.13167 | -47.62085 | 34185 ft | 406 kts | 232° |
| 2026-05-04 01:15 | -27.17011 | -47.66722 | 34196 ft | 406 kts | 232° |
| 2026-05-04 01:15 | -27.20870 | -47.71380 | 34212 ft | 405 kts | 232° |
| 2026-05-04 01:16 | -27.24725 | -47.76040 | 34212 ft | 406 kts | 232° |
| 2026-05-04 01:16 | -27.28576 | -47.80698 | 34213 ft | 406 kts | 232° |
| 2026-05-04 01:17 | -27.32429 | -47.85366 | 34214 ft | 406 kts | 232° |
| 2026-05-04 01:17 | -27.36283 | -47.90040 | 34202 ft | 406 kts | 232° |
| 2026-05-04 01:18 | -27.40121 | -47.94711 | 34212 ft | 406 kts | 232° |
| 2026-05-04 01:18 | -27.43922 | -47.99370 | 34206 ft | 406 kts | 232° |
| 2026-05-04 01:19 | -27.47741 | -48.04056 | 34212 ft | 406 kts | 232° |
| 2026-05-04 01:19 | -27.51594 | -48.08788 | 34205 ft | 406 kts | 232° |
| 2026-05-04 01:20 | -27.55397 | -48.13463 | 34210 ft | 406 kts | 232° |
| 2026-05-04 01:20 | -27.59224 | -48.18174 | 34204 ft | 407 kts | 232° |
| 2026-05-04 01:21 | -27.63064 | -48.22907 | 34200 ft | 406 kts | 232° |
| 2026-05-04 01:21 | -27.66884 | -48.27619 | 34212 ft | 407 kts | 232° |
| 2026-05-04 01:22 | -27.70713 | -48.32348 | 34215 ft | 409 kts | 232° |
| 2026-05-04 01:22 | -27.74565 | -48.37111 | 34210 ft | 409 kts | 232° |
| 2026-05-04 01:23 | -27.78383 | -48.41837 | 34213 ft | 409 kts | 232° |
| 2026-05-04 01:23 | -27.82229 | -48.46603 | 34214 ft | 409 kts | 232° |
| 2026-05-04 01:24 | -27.86081 | -48.51381 | 34212 ft | 409 kts | 232° |
| 2026-05-04 01:24 | -27.89916 | -48.56145 | 34215 ft | 408 kts | 232° |
| 2026-05-04 01:25 | -27.93738 | -48.60897 | 34218 ft | 410 kts | 232° |
| 2026-05-04 01:25 | -27.97568 | -48.65665 | 34229 ft | 410 kts | 233° |
| 2026-05-04 01:26 | -28.01419 | -48.70465 | 34231 ft | 410 kts | 233° |
| 2026-05-04 01:26 | -28.05257 | -48.75252 | 34225 ft | 410 kts | 232° |
| 2026-05-04 01:27 | -28.09059 | -48.80003 | 34221 ft | 410 kts | 233° |
| 2026-05-04 01:27 | -28.12891 | -48.84794 | 34217 ft | 410 kts | 232° |
| 2026-05-04 01:28 | -28.16715 | -48.89582 | 34205 ft | 410 kts | 233° |
| 2026-05-04 01:28 | -28.20551 | -48.94395 | 34206 ft | 409 kts | 234° |
| 2026-05-04 01:29 | -28.23435 | -48.99834 | 34215 ft | 400 kts | 250° |
| 2026-05-04 01:29 | -28.25591 | -49.05672 | 34209 ft | 402 kts | 250° |
| 2026-05-04 01:30 | -28.27734 | -49.11490 | 34202 ft | 401 kts | 250° |
| 2026-05-04 01:30 | -28.29887 | -49.17343 | 34202 ft | 401 kts | 250° |
| 2026-05-04 01:31 | -28.32033 | -49.23185 | 34200 ft | 401 kts | 250° |
| 2026-05-04 01:31 | -28.34178 | -49.29036 | 34200 ft | 401 kts | 250° |
| 2026-05-04 01:32 | -28.36318 | -49.34881 | 34202 ft | 400 kts | 250° |
| 2026-05-04 01:32 | -28.38458 | -49.40738 | 34187 ft | 399 kts | 250° |
| 2026-05-04 01:33 | -28.40567 | -49.46514 | 34195 ft | 395 kts | 250° |
| 2026-05-04 01:33 | -28.42662 | -49.52265 | 34196 ft | 394 kts | 250° |
| 2026-05-04 01:34 | -28.44778 | -49.58081 | 33757 ft | 398 kts | 249° |
| 2026-05-04 01:34 | -28.45835 | -49.60990 | 33331 ft | 399 kts | 250° |
| 2026-05-04 01:34 | -28.46891 | -49.63900 | 32892 ft | 401 kts | 249° |
| 2026-05-04 01:34 | -28.47959 | -49.66845 | 32454 ft | 402 kts | 250° |
| 2026-05-04 01:35 | -28.49021 | -49.69772 | 32010 ft | 403 kts | 250° |
| 2026-05-04 01:35 | -28.50076 | -49.72686 | 31572 ft | 399 kts | 249° |
| 2026-05-04 01:35 | -28.51129 | -49.75594 | 31132 ft | 398 kts | 249° |
| 2026-05-04 01:35 | -28.52181 | -49.78503 | 30692 ft | 397 kts | 249° |
| 2026-05-04 01:36 | -28.53225 | -49.81391 | 30251 ft | 395 kts | 249° |
| 2026-05-04 01:36 | -28.54277 | -49.84306 | 29805 ft | 393 kts | 249° |
| 2026-05-04 01:36 | -28.55309 | -49.87165 | 29382 ft | 392 kts | 249° |
| 2026-05-04 01:36 | -28.56345 | -49.90038 | 28950 ft | 390 kts | 249° |
| 2026-05-04 01:37 | -28.57363 | -49.92863 | 28521 ft | 388 kts | 249° |
| 2026-05-04 01:37 | -28.58390 | -49.95720 | 28089 ft | 386 kts | 249° |
| 2026-05-04 01:37 | -28.59391 | -49.98499 | 27670 ft | 385 kts | 249° |
| 2026-05-04 01:37 | -28.60410 | -50.01336 | 27248 ft | 382 kts | 249° |
| 2026-05-04 01:38 | -28.61404 | -50.04102 | 26829 ft | 380 kts | 249° |
| 2026-05-04 01:38 | -28.62402 | -50.06884 | 26412 ft | 380 kts | 249° |
| 2026-05-04 01:38 | -28.63390 | -50.09639 | 25992 ft | 378 kts | 249° |
| 2026-05-04 01:38 | -28.64384 | -50.12415 | 25575 ft | 376 kts | 249° |
| 2026-05-04 01:39 | -28.65362 | -50.15147 | 25158 ft | 374 kts | 249° |
| 2026-05-04 01:39 | -28.66339 | -50.17876 | 24747 ft | 373 kts | 249° |
| 2026-05-04 01:39 | -28.67312 | -50.20597 | 24339 ft | 372 kts | 249° |
| 2026-05-04 01:39 | -28.68285 | -50.23322 | 23930 ft | 370 kts | 249° |
| 2026-05-04 01:40 | -28.69262 | -50.26057 | 23517 ft | 370 kts | 249° |
| 2026-05-04 01:40 | -28.70226 | -50.28760 | 23110 ft | 368 kts | 249° |
| 2026-05-04 01:40 | -28.71179 | -50.31435 | 22706 ft | 366 kts | 249° |
| 2026-05-04 01:40 | -28.72150 | -50.34095 | 22296 ft | 364 kts | 244° |
| 2026-05-04 01:41 | -28.73732 | -50.36347 | 21916 ft | 367 kts | 223° |
| 2026-05-04 01:41 | -28.75747 | -50.38176 | 21497 ft | 368 kts | 221° |
| 2026-05-04 01:41 | -28.77744 | -50.39948 | 21083 ft | 365 kts | 221° |
| 2026-05-04 01:41 | -28.79762 | -50.41734 | 20682 ft | 364 kts | 220° |
| 2026-05-04 01:42 | -28.81737 | -50.43481 | 20285 ft | 361 kts | 220° |
| 2026-05-04 01:42 | -28.83746 | -50.45258 | 19879 ft | 359 kts | 220° |
| 2026-05-04 01:42 | -28.85702 | -50.46989 | 19486 ft | 357 kts | 221° |
| 2026-05-04 01:42 | -28.87666 | -50.48728 | 19092 ft | 355 kts | 220° |
| 2026-05-04 01:43 | -28.89616 | -50.50456 | 18699 ft | 354 kts | 220° |
| 2026-05-04 01:43 | -28.91564 | -50.52182 | 18305 ft | 352 kts | 220° |
| 2026-05-04 01:43 | -28.93479 | -50.53880 | 17918 ft | 352 kts | 220° |
| 2026-05-04 01:43 | -28.95428 | -50.55609 | 17530 ft | 349 kts | 220° |
| 2026-05-04 01:44 | -28.97322 | -50.57291 | 17146 ft | 347 kts | 220° |
| 2026-05-04 01:44 | -28.99227 | -50.58982 | 16765 ft | 345 kts | 220° |
| 2026-05-04 01:44 | -29.01129 | -50.60672 | 16376 ft | 343 kts | 220° |
| 2026-05-04 01:44 | -29.02995 | -50.62322 | 16004 ft | 340 kts | 219° |
| 2026-05-04 01:45 | -29.04963 | -50.63832 | 15648 ft | 340 kts | 216° |
| 2026-05-04 01:45 | -29.06941 | -50.65327 | 15266 ft | 338 kts | 217° |
| 2026-05-04 01:45 | -29.10828 | -50.68276 | 14517 ft | 334 kts | 217° |
| 2026-05-04 01:46 | -29.12659 | -50.69907 | 14134 ft | 327 kts | 233° |
| 2026-05-04 01:46 | -29.14029 | -50.71967 | 14182 ft | 325 kts | 236° |
| 2026-05-04 01:46 | -29.15368 | -50.74056 | 14188 ft | 325 kts | 236° |
| 2026-05-04 01:46 | -29.16706 | -50.76155 | 14202 ft | 326 kts | 237° |
| 2026-05-04 01:47 | -29.18049 | -50.78271 | 14201 ft | 327 kts | 236° |
| 2026-05-04 01:47 | -29.19377 | -50.80366 | 14206 ft | 327 kts | 236° |
| 2026-05-04 01:47 | -29.20729 | -50.82499 | 14210 ft | 326 kts | 236° |
| 2026-05-04 01:47 | -29.22056 | -50.84595 | 14210 ft | 326 kts | 236° |
| 2026-05-04 01:48 | -29.23382 | -50.86691 | 14214 ft | 327 kts | 236° |
| 2026-05-04 01:48 | -29.24732 | -50.88826 | 14217 ft | 326 kts | 236° |
| 2026-05-04 01:48 | -29.26048 | -50.90945 | 14219 ft | 326 kts | 241° |
| 2026-05-04 01:48 | -29.26707 | -50.93419 | 14167 ft | 323 kts | 268° |
| 2026-05-04 01:49 | -29.26288 | -50.95978 | 13696 ft | 329 kts | 293° |
| 2026-05-04 01:49 | -29.24859 | -50.98070 | 13284 ft | 327 kts | 313° |
| 2026-05-04 01:49 | -29.23211 | -50.99889 | 12877 ft | 324 kts | 313° |
| 2026-05-04 01:49 | -29.21595 | -51.01676 | 12507 ft | 323 kts | 313° |
| 2026-05-04 01:50 | -29.19988 | -51.03453 | 12146 ft | 321 kts | 313° |
| 2026-05-04 01:50 | -29.18392 | -51.05218 | 11795 ft | 319 kts | 313° |
| 2026-05-04 01:50 | -29.16806 | -51.06971 | 11442 ft | 311 kts | 313° |
| 2026-05-04 01:50 | -29.15244 | -51.08696 | 11092 ft | 303 kts | 313° |
| 2026-05-04 01:51 | -29.13730 | -51.10368 | 10757 ft | 296 kts | 313° |
| 2026-05-04 01:51 | -29.12260 | -51.11996 | 10436 ft | 286 kts | 313° |
| 2026-05-04 01:51 | -29.10853 | -51.13558 | 10126 ft | 274 kts | 313° |
| 2026-05-04 01:51 | -29.09506 | -51.15054 | 9828 ft | 264 kts | 313° |
| 2026-05-04 01:52 | -29.08213 | -51.16491 | 9542 ft | 255 kts | 313° |
| 2026-05-04 01:52 | -29.06950 | -51.17893 | 9265 ft | 246 kts | 314° |
| 2026-05-04 01:52 | -29.05741 | -51.19234 | 8994 ft | 238 kts | 314° |
| 2026-05-04 01:52 | -29.04571 | -51.20533 | 8733 ft | 231 kts | 314° |
| 2026-05-04 01:53 | -29.03425 | -51.21804 | 8479 ft | 224 kts | 314° |
| 2026-05-04 01:53 | -29.02331 | -51.23018 | 8239 ft | 217 kts | 315° |
| 2026-05-04 01:53 | -29.01251 | -51.24214 | 8009 ft | 211 kts | 315° |
| 2026-05-04 01:53 | -29.00230 | -51.25347 | 7825 ft | 201 kts | 314° |
| 2026-05-04 01:54 | -28.99653 | -51.26757 | 7570 ft | 197 kts | 271° |
| 2026-05-04 01:54 | -29.00189 | -51.28193 | 7355 ft | 201 kts | 227° |
| 2026-05-04 01:54 | -29.01395 | -51.29090 | 7000 ft | 204 kts | 213° |
| 2026-05-04 01:54 | -29.02651 | -51.29860 | 6698 ft | 202 kts | 212° |
| 2026-05-04 01:55 | -29.03899 | -51.30592 | 6438 ft | 198 kts | 211° |
| 2026-05-04 01:55 | -29.05119 | -51.31290 | 6206 ft | 193 kts | 211° |
| 2026-05-04 01:55 | -29.06322 | -51.31945 | 5989 ft | 189 kts | 200° |
| 2026-05-04 01:55 | -29.07599 | -51.31887 | 5842 ft | 179 kts | 155° |
| 2026-05-04 01:56 | -29.08580 | -51.31038 | 5581 ft | 175 kts | 133° |
| 2026-05-04 01:56 | -29.09471 | -51.30072 | 5332 ft | 175 kts | 133° |
| 2026-05-04 01:56 | -29.10366 | -51.29096 | 5082 ft | 175 kts | 132° |
| 2026-05-04 01:56 | -29.11241 | -51.28138 | 4846 ft | 173 kts | 131° |
| 2026-05-04 01:57 | -29.12116 | -51.27178 | 4617 ft | 172 kts | 131° |
| 2026-05-04 01:57 | -29.12981 | -51.26225 | 4400 ft | 171 kts | 131° |
| 2026-05-04 01:57 | -29.13800 | -51.25325 | 4183 ft | 155 kts | 129° |
| 2026-05-04 01:57 | -29.14543 | -51.24507 | 3921 ft | 143 kts | 128° |
| 2026-05-04 01:58 | -29.15238 | -51.23739 | 3692 ft | 136 kts | 127° |
| 2026-05-04 01:58 | -29.15916 | -51.22986 | 3590 ft | 138 kts | 127° |
| 2026-05-04 01:58 | -29.16605 | -51.22222 | 3472 ft | 138 kts | 127° |
| 2026-05-04 01:58 | -29.17298 | -51.21454 | 3265 ft | 138 kts | 127° |
| 2026-05-04 01:59 | -29.17981 | -51.20687 | 2965 ft | 140 kts | 127° |
| 2026-05-04 01:59 | -29.18668 | -51.19931 | 2678 ft | 133 kts | 131° |
| 2026-05-04 01:59 | -29.19319 | -51.19207 | 2468 ft | 129 kts | 131° |
| 2026-05-04 01:59 | -29.19796 | -51.18675 | 2453 ft | 43 kts | 137° |
| 2026-05-04 02:00 | -29.19995 | -51.18451 | 2439 ft | 25 kts | 145° |
| 2026-05-04 02:00 | -29.20034 | -51.18416 | 2437 ft | 0 kts | 73° |
| 2026-05-04 02:00 | -29.20030 | -51.18415 | 2437 ft | 0 kts | 353° |
| 2026-05-04 02:00 | -29.20024 | -51.18420 | 2437 ft | 3 kts | 311° |
| 2026-05-04 02:01 | -29.20008 | -51.18440 | 2438 ft | 3 kts | 312° |
| 2026-05-04 02:01 | -29.19980 | -51.18471 | 2440 ft | 7 kts | 316° |
| 2026-05-04 02:01 | -29.19933 | -51.18521 | 2444 ft | 11 kts | 317° |
| 2026-05-04 02:01 | -29.19873 | -51.18590 | 2448 ft | 11 kts | 316° |
| 2026-05-04 02:02 | -29.19821 | -51.18648 | 2451 ft | 8 kts | 315° |
| 2026-05-04 02:02 | -29.19785 | -51.18688 | 2453 ft | 5 kts | 316° |
| 2026-05-04 02:02 | -29.19765 | -51.18710 | 2455 ft | 2 kts | 318° |
| 2026-05-04 02:02 | -29.19751 | -51.18725 | 2456 ft | 8 kts | 315° |
| 2026-05-04 02:03 | -29.19700 | -51.18782 | 2459 ft | 9 kts | 315° |
| 2026-05-04 02:03 | -29.19662 | -51.18823 | 2461 ft | 6 kts | 316° |
| 2026-05-04 02:03 | -29.19634 | -51.18847 | 2462 ft | 4 kts | 353° |
| 2026-05-04 02:03 | -29.19601 | -51.18825 | 2461 ft | 5 kts | 40° |
| 2026-05-04 02:04 | -29.19570 | -51.18788 | 2460 ft | 6 kts | 30° |
| 2026-05-04 02:04 | -29.19537 | -51.18768 | 2460 ft | 2 kts | 37° |
| 2026-05-04 02:04 | -29.19520 | -51.18751 | 2460 ft | 3 kts | 47° |
| 2026-05-04 02:04 | -29.19518 | -51.18749 | 2460 ft | 0 kts | 47° |